Time;durP1;ratioP1;P1;durP2;ratioP2;P2;SDS_P1;SDS_P2;PMS_P1;PMS_P2;Temp;Humidity;BMP_temperature;BMP_pressure;BME280_temperature;BME280_humidity;BME280_pressure;Samples;Min_cycle;Max_cycle;Signal;HPM_P1;HPM_P2
2021/12/16 00:02:23;;;;;;;52.83;49.33;;;;;;;12.65;100.00;103548.55;1979579;71;39605;-78
2021/12/16 00:08:15;;;;;;;49.17;45.77;;;;;;;12.62;100.00;103557.94;1837015;76;86554;-72
2021/12/16 00:32:00;;;;;;;53.00;49.40;;;;;;;12.61;100.00;103574.34;1884569;74;86269;-72
2021/12/16 00:37:45;;;;;;;51.57;48.17;;;;;;;12.62;100.00;103574.67;1836586;78;86419;-72
2021/12/16 00:43:37;;;;;;;52.67;49.07;;;;;;;12.55;100.00;103580.84;1911991;74;86323;-72
2021/12/16 00:49:23;;;;;;;50.63;47.23;;;;;;;12.49;100.00;103589.62;1982096;71;40112;-78
2021/12/16 00:55:18;;;;;;;52.17;48.70;;;;;;;12.42;100.00;103593.53;1824518;76;86321;-73
2021/12/16 01:01:03;;;;;;;52.90;49.00;;;;;;;12.42;100.00;103593.53;1797640;78;85890;-72
2021/12/16 01:07:01;;;;;;;51.33;47.77;;;;;;;12.45;100.00;103591.13;1865540;75;86657;-76
2021/12/16 01:55:06;;;;;;;52.77;49.37;;;;;;;12.21;100.00;103628.27;1879869;75;86526;-73
2021/12/16 02:00:57;;;;;;;54.93;51.37;;;;;;;12.26;100.00;103640.98;1829061;76;85970;-75
2021/12/16 02:07:00;;;;;;;54.27;50.70;;;;;;;12.19;100.00;103631.84;1887644;73;86669;-78
2021/12/16 02:12:50;;;;;;;53.87;50.27;;;;;;;12.16;100.00;103641.50;1910627;74;85665;-75
2021/12/16 02:36:46;;;;;;;53.43;50.03;;;;;;;12.32;100.00;103642.88;1880265;75;85896;-73
2021/12/16 02:42:38;;;;;;;52.37;48.87;;;;;;;12.30;100.00;103644.48;1908297;74;86431;-73
2021/12/16 02:48:31;;;;;;;49.47;46.47;;;;;;;12.31;100.00;103643.95;1976780;71;39771;-76
2021/12/16 02:54:17;;;;;;;49.70;46.50;;;;;;;12.29;100.00;103633.02;1980240;71;39591;-78
2021/12/16 03:00:02;;;;;;;53.20;49.70;;;;;;;12.31;100.00;103640.63;1923641;72;85656;-76
2021/12/16 03:05:46;;;;;;;51.30;48.07;;;;;;;12.14;100.00;103638.10;1869747;75;86201;-73
2021/12/16 03:11:40;;;;;;;52.67;49.27;;;;;;;12.15;100.00;103643.96;1939910;71;86858;-73
2021/12/16 03:17:26;;;;;;;52.43;49.17;;;;;;;12.07;100.00;103636.42;1983766;71;39740;-73
2021/12/16 03:23:27;;;;;;;53.23;49.90;;;;;;;12.12;100.00;103624.06;1840350;76;86451;-75
2021/12/16 03:35:27;;;;;;;56.07;52.43;;;;;;;12.09;100.00;103628.17;1837420;76;87011;-76
2021/12/16 03:41:11;;;;;;;54.43;50.83;;;;;;;12.11;100.00;103631.56;1986985;71;39680;-77
2021/12/16 03:46:55;;;;;;;52.57;49.27;;;;;;;12.01;100.00;103635.96;1876234;75;86780;-75
2021/12/16 03:52:48;;;;;;;52.97;49.57;;;;;;;12.01;100.00;103638.21;1833178;76;85834;-74
2021/12/16 03:58:34;;;;;;;50.40;47.30;;;;;;;11.98;100.00;103643.39;1909164;72;86402;-76
2021/12/16 04:04:19;;;;;;;53.30;50.03;;;;;;;12.10;100.00;103645.21;1983912;71;39452;-77
2021/12/16 04:10:07;;;;;;;51.17;48.07;;;;;;;12.05;100.00;103648.36;1860590;76;86319;-76
2021/12/16 04:15:54;;;;;;;51.83;48.53;;;;;;;12.09;100.00;103642.64;1807745;78;86782;-72
2021/12/16 04:21:40;;;;;;;51.47;48.17;;;;;;;12.11;100.00;103645.50;1932304;72;86098;-79
2021/12/16 04:27:26;;;;;;;51.63;48.33;;;;;;;12.04;100.00;103645.25;1923382;73;86516;-74
2021/12/16 04:33:10;;;;;;;51.27;48.13;;;;;;;12.11;100.00;103645.50;1811763;78;86843;-78
2021/12/16 04:38:55;;;;;;;49.33;46.33;;;;;;;12.19;100.00;103646.60;1793683;78;86378;-78
2021/12/16 04:44:42;;;;;;;50.73;47.43;;;;;;;12.22;100.00;103645.31;1917688;72;86775;-78
2021/12/16 04:50:28;;;;;;;48.07;45.17;;;;;;;12.12;100.00;103644.96;1910996;72;86490;-73
2021/12/16 04:56:15;;;;;;;46.27;43.57;;;;;;;12.23;100.00;103641.45;1985728;71;39628;-73
2021/12/16 05:02:04;;;;;;;46.57;43.97;;;;;;;12.32;100.00;103640.91;1807334;75;85564;-76
2021/12/16 05:07:48;;;;;;;47.60;44.80;;;;;;;12.40;100.00;103650.08;1886528;73;86145;-73
2021/12/16 05:13:35;;;;;;;49.83;46.57;;;;;;;12.29;100.00;103650.27;1918143;72;85584;-76
2021/12/16 05:19:22;;;;;;;52.50;49.20;;;;;;;12.24;100.00;103651.49;1978922;71;39651;-75
2021/12/16 05:25:13;;;;;;;51.13;48.03;;;;;;;12.15;100.00;103649.53;1838541;76;85543;-76
2021/12/16 05:30:54;;;;;;;54.27;50.97;;;;;;;12.07;100.00;103660.11;1805976;78;85341;-73
2021/12/16 05:36:37;;;;;;;54.50;51.00;;;;;;;12.05;100.00;103675.69;1898036;72;86116;-76
2021/12/16 05:42:22;;;;;;;54.00;50.43;;;;;;;11.98;100.00;103679.61;1944473;71;39480;-78
2021/12/16 05:48:09;;;;;;;56.07;52.47;;;;;;;11.89;100.00;103685.99;1837771;76;86789;-72
2021/12/16 05:50:42;;;;;;;52.20;48.93;;;;;;;11.86;100.00;103699.81;1793167;77;938986;-73
2021/12/16 05:56:28;;;;;;;55.50;51.90;;;;;;;11.98;100.00;103699.94;1925724;73;85630;-73
2021/12/16 06:02:12;;;;;;;53.73;50.23;;;;;;;12.00;100.00;103713.11;1928310;71;39557;-74
2021/12/16 06:07:57;;;;;;;53.23;49.93;;;;;;;11.81;100.00;103719.13;1892897;74;86372;-74
2021/12/16 06:13:48;;;;;;;52.07;48.77;;;;;;;12.00;100.00;103722.01;1892412;73;86922;-74
2021/12/16 06:31:34;;;;;;;55.00;51.30;;;;;;;11.92;100.00;103730.10;1902597;72;85819;-77
2021/12/16 06:37:19;;;;;;;53.97;50.17;;;;;;;11.80;100.00;103743.90;1978945;70;39682;-73
2021/12/16 06:43:07;;;;;;;52.60;49.00;;;;;;;11.70;100.00;103758.80;1844708;76;86806;-73
2021/12/16 06:48:57;;;;;;;54.40;50.90;;;;;;;11.85;100.00;103760.77;1871060;75;86560;-74
2021/12/16 06:54:53;;;;;;;54.60;50.90;;;;;;;11.78;100.00;103768.32;1902388;73;86000;-75
2021/12/16 07:00:33;;;;;;;56.20;52.30;;;;;;;11.72;100.00;103766.98;1912428;74;86129;-75
2021/12/16 07:06:18;;;;;;;57.43;53.57;;;;;;;11.68;100.00;103784.61;1977638;71;39568;-72
2021/12/16 07:12:07;;;;;;;55.27;51.77;;;;;;;11.86;100.00;103783.91;1972760;69;86437;-76
2021/12/16 07:17:54;;;;;;;57.40;53.77;;;;;;;12.00;100.00;103782.77;1794589;78;86840;-73
2021/12/16 07:23:40;;;;;;;56.40;52.67;;;;;;;11.70;100.00;103799.18;1911957;74;86576;-78
2021/12/16 07:29:23;;;;;;;55.93;52.10;;;;;;;11.58;100.00;103800.09;1979344;71;39559;-75
2021/12/16 07:35:11;;;;;;;57.07;53.17;;;;;;;11.51;100.00;103807.06;1826281;76;86361;-74
2021/12/16 07:40:57;;;;;;;54.87;51.20;;;;;;;11.51;100.00;103802.87;1878353;75;86711;-76
2021/12/16 07:46:44;;;;;;;54.67;50.83;;;;;;;11.68;100.00;103819.98;1808171;77;86520;-73
2021/12/16 07:52:32;;;;;;;54.10;50.20;;;;;;;11.54;100.00;103828.05;1874692;74;86616;-73
2021/12/16 07:58:19;;;;;;;55.70;51.90;;;;;;;11.40;100.00;103839.23;1980079;71;39719;-73
2021/12/16 08:04:05;;;;;;;55.03;51.30;;;;;;;11.74;100.00;103846.43;1822857;75;86654;-76
2021/12/16 08:09:51;;;;;;;52.67;48.93;;;;;;;11.58;100.00;103848.28;1882521;73;86293;-75
2021/12/16 08:15:35;;;;;;;56.13;52.53;;;;;;;11.58;100.00;103851.06;1906089;74;86223;-78
2021/12/16 08:21:20;;;;;;;53.77;50.27;;;;;;;11.67;100.00;103861.42;1977040;71;39609;-74
2021/12/16 08:27:05;;;;;;;56.13;52.53;;;;;;;11.54;100.00;103867.03;1991019;71;86911;-73
2021/12/16 08:32:48;;;;;;;55.10;51.40;;;;;;;11.55;100.00;103874.33;1906309;73;87183;-77
2021/12/16 08:38:33;;;;;;;54.07;50.27;;;;;;;11.74;100.00;103876.21;1901759;72;86712;-76
2021/12/16 08:44:19;;;;;;;52.07;48.30;;;;;;;11.47;100.00;103887.91;1977508;71;39795;-77
2021/12/16 08:50:08;;;;;;;52.63;48.73;;;;;;;11.53;100.00;103895.94;1910011;74;86662;-76
2021/12/16 08:55:54;;;;;;;51.03;47.50;;;;;;;11.45;100.00;103895.64;1812692;77;85666;-77
2021/12/16 09:01:42;;;;;;;52.20;48.50;;;;;;;11.40;100.00;103905.17;1921001;73;86550;-74
2021/12/16 09:07:27;;;;;;;52.87;48.97;;;;;;;11.46;100.00;103909.03;1944793;73;86239;-74
2021/12/16 09:13:15;;;;;;;56.27;51.87;;;;;;;11.39;100.00;103922.41;1945220;71;39385;-77
2021/12/16 09:32:31;;;;;;;50.97;47.13;;;;;;;11.74;100.00;103942.52;1911870;74;86186;-76
2021/12/16 09:35:02;;;;;;;54.73;50.83;;;;;;;11.81;100.00;103943.34;1812822;76;937975;-74
2021/12/16 09:37:32;;;;;;;54.57;50.67;;;;;;;11.84;100.00;103940.69;1800483;77;941130;-75
2021/12/16 09:40:03;;;;;;;54.07;50.07;;;;;;;11.68;100.00;103940.56;1804556;77;939960;-74
2021/12/16 09:42:35;;;;;;;55.07;51.10;;;;;;;11.60;100.00;103945.50;1811028;78;939641;-75
2021/12/16 09:45:08;;;;;;;53.90;50.00;;;;;;;11.57;100.00;103938.98;1805501;78;939585;-75
2021/12/16 09:47:39;;;;;;;52.77;48.97;;;;;;;11.56;100.00;103949.27;1823671;77;940949;-76
2021/12/16 09:53:26;;;;;;;55.87;51.77;;;;;;;11.61;100.00;103947.22;1914869;74;86257;-74
2021/12/16 09:59:13;;;;;;;54.87;50.93;;;;;;;11.68;100.00;103960.05;1871318;74;86848;-76
2021/12/16 10:04:59;;;;;;;54.87;51.00;;;;;;;11.68;100.00;103963.41;1818979;77;86341;-77
2021/12/16 10:10:44;;;;;;;57.37;53.30;;;;;;;11.66;100.00;103978.92;1880444;75;86663;-76
2021/12/16 10:22:40;;;;;;;57.30;53.20;;;;;;;11.66;100.00;103992.84;1905520;74;86731;-85
2021/12/16 10:28:54;;;;;;;53.20;49.17;;;;;;;11.78;100.00;103990.28;1877957;74;86857;-76
2021/12/16 10:34:39;;;;;;;53.90;49.97;;;;;;;11.86;100.00;103988.13;1911771;74;86343;-83
2021/12/16 10:40:32;;;;;;;56.83;52.57;;;;;;;11.95;100.00;103985.10;1984220;71;47060;-83
2021/12/16 10:46:22;;;;;;;53.97;50.00;;;;;;;11.75;100.00;103986.02;1941020;71;39707;-76
2021/12/16 10:52:10;;;;;;;55.20;50.70;;;;;;;11.72;100.00;103985.03;1836656;76;85697;-75
2021/12/16 10:57:56;;;;;;;56.20;51.83;;;;;;;12.02;100.00;103983.17;1800451;78;86878;-76
2021/12/16 11:03:46;;;;;;;56.90;52.47;;;;;;;12.02;100.00;103981.78;1850608;76;85508;-75
2021/12/16 11:10:04;;;;;;;56.10;51.70;;;;;;;11.96;100.00;103982.11;1795923;78;85579;-78
2021/12/16 11:15:57;;;;;;;56.40;52.27;;;;;;;12.05;100.00;103987.77;1882065;75;86323;-77
2021/12/16 11:21:42;;;;;;;55.87;51.67;;;;;;;12.01;100.00;103986.50;1888496;74;86546;-79
2021/12/16 11:27:40;;;;;;;52.00;48.30;;;;;;;12.17;100.00;103987.94;1952192;72;86346;-80
2021/12/16 11:33:42;;;;;;;56.43;52.13;;;;;;;12.27;100.00;103977.19;1907308;74;85319;-75
2021/12/16 11:39:29;;;;;;;55.23;51.00;;;;;;;12.19;100.00;103984.41;1904132;72;85616;-78
2021/12/16 11:45:30;;;;;;;57.00;52.77;;;;;;;12.11;100.00;103981.84;1945710;71;39625;-75
2021/12/16 11:51:18;;;;;;;60.00;55.50;;;;;;;12.15;100.00;103981.17;1985292;71;39572;-75
2021/12/16 11:57:10;;;;;;;57.83;53.63;;;;;;;12.19;100.00;103981.63;1819422;76;85410;-76
2021/12/16 11:59:44;;;;;;;56.63;52.27;;;;;;;12.26;100.00;104006.99;1782598;76;939067;-77
2021/12/16 12:05:44;;;;;;;58.23;54.03;;;;;;;12.10;100.00;104001.05;1843104;76;86494;-76
2021/12/16 12:11:33;;;;;;;57.83;53.43;;;;;;;12.10;100.00;104010.80;1910583;74;86388;-74
2021/12/16 12:17:21;;;;;;;56.77;52.70;;;;;;;12.07;100.00;104002.85;1984226;71;40206;-76
2021/12/16 12:23:07;;;;;;;57.07;52.83;;;;;;;12.22;100.00;104004.33;1843062;76;86383;-75
2021/12/16 12:28:53;;;;;;;54.57;50.77;;;;;;;12.23;100.00;104006.58;1868625;75;86588;-75
2021/12/16 12:34:42;;;;;;;55.10;51.03;;;;;;;12.19;100.00;103998.34;1884381;75;85801;-75
2021/12/16 12:40:31;;;;;;;55.87;51.97;;;;;;;12.22;100.00;103986.21;1915337;74;85752;-75
2021/12/16 12:46:17;;;;;;;54.63;50.63;;;;;;;12.29;100.00;103982.85;1984595;71;39481;-75
2021/12/16 12:52:10;;;;;;;57.13;53.33;;;;;;;12.51;100.00;103982.54;1862323;75;86424;-80
2021/12/16 12:58:03;;;;;;;54.83;51.23;;;;;;;12.18;100.00;103975.72;1892237;74;86473;-75
2021/12/16 13:03:50;;;;;;;52.27;48.57;;;;;;;12.18;100.00;103972.94;1893958;74;85296;-81
2021/12/16 13:09:43;;;;;;;56.07;51.97;;;;;;;12.24;100.00;103983.18;1916913;73;86270;-81
2021/12/16 13:15:52;;;;;;;50.67;47.17;;;;;;;12.26;100.00;103973.55;1835301;77;86433;-80
2021/12/16 13:27:47;;;;;;;55.83;51.63;;;;;;;12.36;100.00;103966.11;1921306;73;85276;-76
2021/12/16 13:33:40;;;;;;;53.47;49.67;;;;;;;12.18;100.00;103954.81;1944233;73;86173;-81
2021/12/16 13:39:26;;;;;;;49.50;46.10;;;;;;;12.17;100.00;103967.89;1942696;71;39668;-74
2021/12/16 13:45:21;;;;;;;46.57;43.57;;;;;;;12.52;100.00;103964.20;1984194;71;39725;-75
2021/12/16 14:03:48;;;;;;;55.70;51.93;;;;;;;12.15;100.00;103959.45;1937912;71;85322;-73
2021/12/16 14:09:35;;;;;;;58.03;53.90;;;;;;;12.09;100.00;103967.28;1944131;73;86409;-76
2021/12/16 14:15:56;;;;;;;56.50;52.27;;;;;;;12.28;100.00;103965.80;1948322;73;86576;-73
2021/12/16 14:40:40;;;;;;;51.10;47.47;;;;;;;12.03;100.00;103975.11;1923530;72;86142;-77
2021/12/16 14:46:27;;;;;;;52.93;49.23;;;;;;;12.04;100.00;103976.30;1815141;78;86531;-74
2021/12/16 14:52:17;;;;;;;53.50;49.70;;;;;;;11.95;100.00;103973.95;1982537;71;39637;-76
2021/12/16 14:58:05;;;;;;;51.13;47.60;;;;;;;11.85;100.00;103983.62;1825323;76;85396;-76
2021/12/16 15:03:51;;;;;;;52.77;49.17;;;;;;;11.82;100.00;103978.49;1898422;73;85494;-74
2021/12/16 15:09:40;;;;;;;52.13;48.53;;;;;;;11.81;100.00;103989.31;1906905;74;86730;-82
2021/12/16 15:15:32;;;;;;;50.07;46.80;;;;;;;11.71;100.00;103986.63;1922326;73;85634;-76
2021/12/16 15:39:51;;;;;;;49.57;46.27;;;;;;;11.60;100.00;104003.97;1898433;73;85745;-77
2021/12/16 15:48:45;;;;;;;51.83;48.40;;;;;;;11.61;100.00;104008.48;1951133;72;85408;-73
2021/12/16 15:51:17;;;;;;;50.03;46.80;;;;;;;11.66;100.00;104019.84;1892921;73;938801;-83
2021/12/16 15:53:52;;;;;;;52.27;48.60;;;;;;;11.65;100.00;104016.19;1853834;75;939020;-74
2021/12/16 15:56:26;;;;;;;53.40;49.90;;;;;;;11.61;100.00;104013.52;1860704;74;939913;-74
2021/12/16 16:02:15;;;;;;;52.10;48.37;;;;;;;11.58;100.00;104015.35;1984740;70;39548;-82
2021/12/16 16:08:05;;;;;;;51.10;47.73;;;;;;;11.72;100.00;104010.10;1970013;72;86119;-75
2021/12/16 16:13:56;;;;;;;50.23;46.83;;;;;;;11.39;100.00;104017.58;1843350;75;86028;-74
2021/12/16 16:19:44;;;;;;;51.83;48.43;;;;;;;11.52;100.00;104017.59;1941204;73;86132;-75
2021/12/16 16:28:51;;;;;;;49.33;46.03;;;;;;;11.46;100.00;104028.20;1872326;75;85321;-77
2021/12/16 16:34:45;;;;;;;50.00;46.33;;;;;;;11.48;100.00;104019.63;1857539;76;86548;-74
2021/12/16 16:40:43;;;;;;;48.67;45.43;;;;;;;11.48;100.00;104030.23;1931486;72;86471;-75
2021/12/16 16:46:43;;;;;;;46.90;43.50;;;;;;;11.61;100.00;104028.84;1902023;72;86481;-83
2021/12/16 16:49:15;;;;;;;48.73;45.57;;;;;;;11.56;100.00;104031.40;1860306;74;938786;-77
2021/12/16 16:55:06;;;;;;;48.37;45.07;;;;;;;11.42;100.00;104031.10;1839618;75;85789;-79
2021/12/16 17:00:52;;;;;;;47.60;44.27;;;;;;;11.47;100.00;104032.68;1807969;77;86494;-78
2021/12/16 17:06:41;;;;;;;47.83;44.73;;;;;;;11.59;100.00;104036.56;1927108;72;86844;-80
2021/12/16 17:12:35;;;;;;;46.53;43.43;;;;;;;11.55;100.00;104028.28;1922192;73;86343;-81
2021/12/16 17:18:23;;;;;;;46.30;43.30;;;;;;;11.43;100.00;104028.08;1981817;71;39594;-76
2021/12/16 17:24:12;;;;;;;45.07;42.17;;;;;;;11.77;100.00;104022.84;1970891;72;85974;-78
2021/12/16 17:30:00;;;;;;;50.77;47.47;;;;;;;11.57;100.00;104020.59;1893211;74;85617;-74
2021/12/16 17:35:47;;;;;;;50.27;46.97;;;;;;;11.29;100.00;104039.44;1884113;73;86231;-80
2021/12/16 17:41:33;;;;;;;50.17;46.67;;;;;;;11.31;100.00;104042.84;1935436;73;85278;-81
2021/12/16 17:47:22;;;;;;;52.17;47.93;;;;;;;11.42;100.00;104049.19;1984498;71;39498;-79
2021/12/16 17:53:08;;;;;;;53.07;49.37;;;;;;;11.26;100.00;104053.22;1829391;76;85627;-80
2021/12/16 17:58:56;;;;;;;52.50;48.73;;;;;;;11.26;100.00;104056.01;1794716;79;85558;-81
2021/12/16 18:04:44;;;;;;;55.07;51.57;;;;;;;11.25;100.00;104059.02;1868239;74;101118;-70
2021/12/16 18:10:28;;;;;;;55.80;52.20;;;;;;;11.29;100.00;104063.09;1899482;72;85354;-70
2021/12/16 18:16:19;;;;;;;53.93;50.63;;;;;;;11.18;100.00;104067.34;1984534;71;39565;-71
2021/12/16 18:22:08;;;;;;;57.37;53.77;;;;;;;11.37;100.00;104064.28;1907909;74;86483;-71
2021/12/16 18:27:57;;;;;;;59.73;55.70;;;;;;;11.35;100.00;104063.09;1820779;77;86492;-70
2021/12/16 18:33:43;;;;;;;54.67;51.00;;;;;;;11.22;100.00;104071.41;1917945;72;86218;-69
2021/12/16 18:39:32;;;;;;;53.87;50.43;;;;;;;11.41;100.00;104071.14;1870049;75;86466;-71
2021/12/16 18:45:23;;;;;;;52.87;49.37;;;;;;;11.35;100.00;104077.00;1979208;71;39449;-70
2021/12/16 18:51:25;;;;;;;53.67;49.80;;;;;;;11.25;100.00;104075.16;1809825;77;86694;-70
2021/12/16 18:57:10;;;;;;;58.20;54.37;;;;;;;11.23;100.00;104079.23;1840508;76;85632;-69
2021/12/16 19:02:56;;;;;;;55.37;51.87;;;;;;;11.22;100.00;104081.69;1797658;78;85575;-69
2021/12/16 19:11:53;;;;;;;55.63;52.03;;;;;;;11.21;100.00;104080.83;1887856;74;86503;-68
2021/12/16 19:14:26;;;;;;;53.13;49.63;;;;;;;11.17;100.00;104100.94;1832432;75;938961;-69
2021/12/16 19:16:58;;;;;;;52.43;48.87;;;;;;;11.18;100.00;104092.39;1844237;75;939667;-70
2021/12/16 19:19:30;;;;;;;54.73;50.93;;;;;;;11.28;100.00;104096.16;1844471;76;939844;-69
2021/12/16 19:22:01;;;;;;;55.40;51.60;;;;;;;11.30;100.00;104099.05;1832434;75;940874;-69
2021/12/16 19:24:32;;;;;;;56.23;52.37;;;;;;;11.19;100.00;104100.20;1844807;75;941090;-70
2021/12/16 19:30:20;;;;;;;58.20;54.17;;;;;;;11.08;100.00;104091.92;1986103;70;39689;-69
2021/12/16 19:36:08;;;;;;;55.73;51.93;;;;;;;11.24;100.00;104096.27;1841175;76;86521;-70
2021/12/16 19:41:53;;;;;;;54.63;50.83;;;;;;;11.20;100.00;104093.58;1822288;77;86573;-72
2021/12/16 19:47:41;;;;;;;57.13;53.30;;;;;;;11.07;100.00;104107.45;1909641;73;86142;-73
2021/12/16 19:53:26;;;;;;;56.80;52.80;;;;;;;11.05;100.00;104108.18;1926050;73;85634;-70
2021/12/16 19:59:11;;;;;;;55.07;51.33;;;;;;;11.19;100.00;104117.77;1890350;74;86633;-72
2021/12/16 20:05:05;;;;;;;55.80;52.00;;;;;;;11.24;100.00;104112.96;1845637;76;86232;-73
2021/12/16 20:10:55;;;;;;;53.93;50.13;;;;;;;11.20;100.00;104111.67;1872900;74;86862;-75
2021/12/16 20:16:45;;;;;;;53.00;49.27;;;;;;;11.05;100.00;104122.95;1910956;73;86208;-77
2021/12/16 20:22:34;;;;;;;56.40;52.13;;;;;;;11.22;100.00;104120.65;1911440;73;86025;-78
2021/12/16 20:31:31;;;;;;;55.80;51.90;;;;;;;10.90;100.00;104130.61;1894305;75;86170;-70
2021/12/16 20:37:19;;;;;;;53.53;49.63;;;;;;;11.11;100.00;104128.23;1921861;71;39694;-72
2021/12/16 20:43:08;;;;;;;56.20;52.20;;;;;;;10.85;100.00;104121.50;1977702;72;86095;-75
2021/12/16 20:48:57;;;;;;;58.83;54.63;;;;;;;10.84;100.00;104130.90;1806680;78;86867;-76
2021/12/16 20:54:46;;;;;;;57.57;53.27;;;;;;;10.72;100.00;104138.13;1879296;74;87010;-70
2021/12/16 21:00:34;;;;;;;57.87;53.73;;;;;;;10.80;100.00;104137.94;1905928;72;86647;-74
2021/12/16 21:06:21;;;;;;;57.23;52.83;;;;;;;10.79;100.00;104143.70;1981711;71;39568;-74
2021/12/16 21:12:08;;;;;;;58.53;54.27;;;;;;;10.73;100.00;104148.19;1891432;74;85436;-74
2021/12/16 21:17:53;;;;;;;55.33;51.43;;;;;;;10.75;100.00;104150.74;1793797;78;86443;-71
2021/12/16 21:23:37;;;;;;;57.57;53.33;;;;;;;10.81;100.00;104145.76;1909052;72;85725;-74
2021/12/16 21:29:20;;;;;;;56.13;52.33;;;;;;;10.99;100.00;104150.23;1978891;70;39418;-75
2021/12/16 21:35:13;;;;;;;56.60;52.07;;;;;;;10.76;100.00;104154.72;1907586;74;86950;-75
2021/12/16 21:40:54;;;;;;;54.90;50.90;;;;;;;10.76;100.00;104146.38;1799422;78;86387;-75
2021/12/16 21:46:39;;;;;;;53.13;49.40;;;;;;;10.87;100.00;104141.60;1903708;72;86527;-71
2021/12/16 21:52:25;;;;;;;53.63;49.83;;;;;;;11.02;100.00;104153.98;1950282;73;86880;-76
2021/12/16 21:58:12;;;;;;;52.30;48.67;;;;;;;10.62;100.00;104159.01;1808941;78;86137;-69
2021/12/16 22:04:00;;;;;;;51.90;48.20;;;;;;;10.75;100.00;104154.39;1874255;74;85700;-72
2021/12/16 22:09:45;;;;;;;52.77;49.17;;;;;;;11.02;100.00;104141.99;1870485;75;85722;-75
2021/12/16 22:15:32;;;;;;;52.87;49.17;;;;;;;10.73;100.00;104144.55;1938854;73;86757;-75
2021/12/16 22:21:21;;;;;;;51.97;48.17;;;;;;;10.88;100.00;104146.11;1983816;70;40268;-73
2021/12/16 22:30:26;;;;;;;50.77;47.07;;;;;;;10.76;100.00;104143.59;1948592;73;86361;-73
2021/12/16 22:36:12;;;;;;;53.03;49.33;;;;;;;10.77;100.00;104148.10;1983900;71;39842;-74
2021/12/16 22:41:59;;;;;;;52.03;48.27;;;;;;;10.78;100.00;104154.52;1892016;74;86587;-75
2021/12/16 22:47:43;;;;;;;53.80;50.10;;;;;;;10.65;100.00;104162.27;1879355;75;86471;-71
2021/12/16 22:53:28;;;;;;;54.43;50.63;;;;;;;10.59;100.00;104169.16;1912654;73;86567;-72
2021/12/16 22:59:15;;;;;;;52.60;48.97;;;;;;;10.63;100.00;104164.91;1985880;71;39834;-71
2021/12/16 23:05:02;;;;;;;50.63;47.10;;;;;;;10.87;100.00;104171.34;1831592;76;86344;-72
2021/12/16 23:10:48;;;;;;;51.43;47.73;;;;;;;10.66;100.00;104172.30;1890718;73;86353;-72
2021/12/16 23:16:53;;;;;;;51.57;47.83;;;;;;;10.70;100.00;104170.82;1905204;74;86133;-71
2021/12/16 23:22:54;;;;;;;55.17;51.37;;;;;;;11.00;100.00;104174.71;1914898;72;86612;-73
2021/12/16 23:28:40;;;;;;;53.17;49.27;;;;;;;10.71;100.00;104171.69;1901877;74;86331;-70
2021/12/16 23:34:25;;;;;;;54.07;50.40;;;;;;;10.56;100.00;104169.05;1861206;76;86595;-72
2021/12/16 23:40:13;;;;;;;54.93;50.83;;;;;;;10.59;100.00;104169.16;1798737;78;86134;-72
2021/12/16 23:46:31;;;;;;;51.57;48.07;;;;;;;10.46;100.00;104166.63;1876221;75;86678;-72
2021/12/16 23:58:11;;;;;;;53.67;49.73;;;;;;;10.55;100.00;104175.66;1893274;74;86070;-70
